Time;durP1;ratioP1;P1;durP2;ratioP2;P2;SDS_P1;SDS_P2;PMS_P1;PMS_P2;Temp;Humidity;BMP_temperature;BMP_pressure;BME280_temperature;BME280_humidity;BME280_pressure;Samples;Min_cycle;Max_cycle;Signal;HPM_P1;HPM_P2
2022/06/22 00:02:14;;;;;;;7.68;4.72;;;18.20;99.90;;;;;;5001133;28;20033;-39
2022/06/22 00:04:48;;;;;;;6.55;5.25;;;18.10;99.90;;;;;;5008362;28;20033;-37
2022/06/22 00:07:21;;;;;;;6.75;4.57;;;18.20;99.90;;;;;;5006420;28;20042;-36
2022/06/22 00:09:54;;;;;;;7.30;5.05;;;18.30;99.90;;;;;;5007781;28;20025;-39
2022/06/22 00:12:27;;;;;;;7.18;5.07;;;18.30;99.90;;;;;;5004155;28;20030;-38
2022/06/22 00:14:56;;;;;;;8.38;5.25;;;18.20;99.90;;;;;;5001641;28;20027;-39
2022/06/22 00:17:38;;;;;;;5.22;4.70;;;18.10;99.90;;;;;;5000138;28;20029;-39
2022/06/22 00:20:33;;;;;;;5.38;4.88;;;18.00;99.90;;;;;;5006471;28;20481;-38
2022/06/22 00:23:13;;;;;;;6.70;4.50;;;17.90;99.90;;;;;;4993878;28;20511;-36
2022/06/22 00:25:40;;;;;;;5.32;3.90;;;17.90;99.90;;;;;;5007240;28;20038;-36
2022/06/22 00:28:32;;;;;;;4.70;4.18;;;18.10;99.90;;;;;;5008384;28;20109;-38
2022/06/22 00:31:20;;;;;;;5.30;4.25;;;18.20;99.90;;;;;;5006095;28;20030;-37
2022/06/22 00:34:12;;;;;;;8.95;4.10;;;18.30;99.90;;;;;;5003341;28;20402;-39
2022/06/22 00:37:05;;;;;;;5.10;4.03;;;18.40;99.90;;;;;;5005669;28;20042;-39
2022/06/22 00:39:35;;;;;;;6.25;4.22;;;18.50;99.90;;;;;;5005302;28;20060;-39
2022/06/22 00:42:14;;;;;;;5.22;4.15;;;18.50;99.90;;;;;;5004504;28;20084;-36
2022/06/22 00:44:43;;;;;;;5.43;4.13;;;18.40;99.90;;;;;;5009465;28;20064;-39
2022/06/22 00:47:30;;;;;;;6.00;4.53;;;18.40;99.90;;;;;;5006395;28;20041;-38
2022/06/22 00:50:05;;;;;;;4.75;4.28;;;18.40;99.90;;;;;;5005881;28;20503;-36
2022/06/22 00:53:01;;;;;;;5.53;4.15;;;18.40;99.90;;;;;;5003257;28;20044;-39
2022/06/22 00:55:30;;;;;;;4.20;3.80;;;18.40;99.90;;;;;;5007982;28;20568;-36
2022/06/22 00:58:01;;;;;;;4.35;3.85;;;18.50;99.90;;;;;;5007009;28;20113;-39
2022/06/22 01:00:32;;;;;;;5.90;4.10;;;18.50;99.90;;;;;;5001533;28;20087;-38
2022/06/22 01:03:12;;;;;;;5.55;3.83;;;18.50;99.90;;;;;;5006781;28;20034;-39
2022/06/22 01:05:50;;;;;;;4.63;3.70;;;18.50;99.90;;;;;;5007571;28;20042;-39
2022/06/22 01:08:27;;;;;;;4.55;3.95;;;18.50;99.90;;;;;;5006966;28;20411;-39
2022/06/22 01:14:05;;;;;;;6.32;4.32;;;18.50;99.90;;;;;;5007060;28;20089;-36
2022/06/22 01:16:38;;;;;;;5.53;4.43;;;18.40;99.90;;;;;;5002718;28;20090;-39
2022/06/22 01:19:42;;;;;;;4.15;3.75;;;18.40;99.90;;;;;;5005277;28;20037;-37
2022/06/22 01:22:26;;;;;;;7.22;5.20;;;18.40;99.90;;;;;;5003831;28;20149;-39
2022/06/22 01:24:51;;;;;;;8.05;5.18;;;18.00;99.90;;;;;;5003275;28;20100;-38
2022/06/22 01:27:28;;;;;;;6.45;4.43;;;17.60;99.90;;;;;;5007038;28;20033;-36
2022/06/22 01:29:56;;;;;;;4.78;4.07;;;17.60;99.90;;;;;;5006663;28;20030;-37
2022/06/22 01:32:33;;;;;;;7.90;4.75;;;17.60;99.90;;;;;;4998069;28;20041;-37
2022/06/22 01:35:14;;;;;;;7.63;4.93;;;17.70;99.90;;;;;;5004374;28;20038;-38
2022/06/22 01:37:44;;;;;;;6.45;5.10;;;17.80;99.90;;;;;;5006826;28;20033;-39
2022/06/22 01:40:22;;;;;;;5.47;4.20;;;17.90;99.90;;;;;;5004536;28;20106;-39
2022/06/22 01:42:57;;;;;;;6.32;4.60;;;17.90;99.90;;;;;;5006995;28;20041;-38
2022/06/22 01:45:39;;;;;;;4.80;4.40;;;18.00;99.90;;;;;;5007333;28;20044;-39
2022/06/22 01:48:10;;;;;;;5.45;4.63;;;18.10;99.90;;;;;;5006225;28;20037;-39
2022/06/22 01:50:42;;;;;;;6.03;5.10;;;18.10;99.90;;;;;;5002422;28;20025;-38
2022/06/22 01:53:13;;;;;;;4.95;4.47;;;18.10;99.90;;;;;;5002385;28;20364;-37
2022/06/22 01:56:01;;;;;;;5.25;4.72;;;18.10;99.90;;;;;;5007981;28;20176;-39
2022/06/22 01:58:42;;;;;;;5.95;4.82;;;18.00;99.90;;;;;;4995725;28;20108;-39
2022/06/22 02:01:25;;;;;;;5.65;4.65;;;18.10;99.90;;;;;;5006609;28;20726;-37
2022/06/22 02:04:25;;;;;;;6.97;5.00;;;18.10;99.90;;;;;;5008002;28;20061;-35
2022/06/22 02:09:57;;;;;;;7.13;5.50;;;17.90;99.90;;;;;;5012283;28;20045;-39
2022/06/22 02:12:28;;;;;;;7.53;5.28;;;17.90;99.90;;;;;;5010003;28;20037;-37
2022/06/22 02:15:05;;;;;;;5.70;4.78;;;17.60;99.90;;;;;;5007416;28;20022;-37
2022/06/22 02:17:36;;;;;;;6.70;5.00;;;17.50;99.90;;;;;;5010052;28;20034;-38
2022/06/22 02:20:34;;;;;;;6.00;5.40;;;17.30;99.90;;;;;;5008345;28;20381;-38
2022/06/22 02:23:05;;;;;;;;;;;17.30;99.90;;;;;;5006347;28;20061;-39
2022/06/22 02:25:35;;;;;;;8.85;4.90;;;17.30;99.90;;;;;;5007982;28;19952;-38
2022/06/22 02:28:01;;;;;;;5.13;4.63;;;17.40;99.90;;;;;;5003100;28;20032;-39
2022/06/22 02:30:27;;;;;;;6.55;5.13;;;17.50;99.90;;;;;;5006508;28;20037;-37
2022/06/22 02:32:53;;;;;;;4.85;4.45;;;17.50;99.90;;;;;;5010239;28;20725;-39
2022/06/22 02:35:19;;;;;;;5.50;4.43;;;17.50;99.90;;;;;;5010679;28;20117;-38
2022/06/22 02:38:02;;;;;;;5.38;4.88;;;17.60;99.90;;;;;;5006047;28;20049;-37
2022/06/22 02:40:30;;;;;;;8.32;4.82;;;17.50;99.90;;;;;;5012501;28;20655;-39
2022/06/22 02:45:42;;;;;;;8.50;5.57;;;17.20;99.90;;;;;;5006019;28;20060;-39
2022/06/22 02:48:25;;;;;;;6.05;5.45;;;17.30;99.90;;;;;;5009639;28;20111;-39
2022/06/22 02:51:14;;;;;;;8.57;5.63;;;17.30;99.90;;;;;;5010161;28;20026;-38
2022/06/22 02:53:41;;;;;;;8.50;5.63;;;17.40;99.90;;;;;;5007413;28;20127;-39
2022/06/22 02:56:20;;;;;;;7.80;4.70;;;17.50;99.90;;;;;;5010202;28;20030;-39
2022/06/22 02:58:45;;;;;;;6.18;4.82;;;17.60;99.90;;;;;;5010208;28;20037;-39
2022/06/22 03:01:18;;;;;;;6.88;4.60;;;17.70;99.90;;;;;;5005930;28;20033;-39
2022/06/22 03:04:09;;;;;;;6.50;4.75;;;17.80;99.90;;;;;;5005122;28;20041;-36
2022/06/22 03:06:39;;;;;;;5.20;4.45;;;17.70;99.90;;;;;;5001396;28;20049;-38
2022/06/22 03:09:07;;;;;;;6.78;5.10;;;17.80;99.90;;;;;;5008561;28;20033;-38
2022/06/22 03:11:37;;;;;;;5.93;4.60;;;17.80;99.90;;;;;;5006661;28;20458;-37
2022/06/22 03:14:27;;;;;;;4.97;4.55;;;17.80;99.90;;;;;;5007092;28;20121;-37
2022/06/22 03:17:00;;;;;;;6.70;4.70;;;17.90;99.90;;;;;;5008861;28;20030;-37
2022/06/22 03:20:05;;;;;;;6.07;4.68;;;17.80;99.90;;;;;;5007909;28;20073;-39
2022/06/22 03:22:38;;;;;;;5.47;4.80;;;17.80;99.90;;;;;;5002432;28;20026;-37
2022/06/22 03:25:24;;;;;;;5.13;4.63;;;17.70;99.90;;;;;;5007767;28;20520;-39
2022/06/22 03:27:58;;;;;;;4.75;4.30;;;17.70;99.90;;;;;;5008329;28;20352;-39
2022/06/22 03:30:32;;;;;;;14.35;4.88;;;17.70;99.90;;;;;;5008765;28;20101;-37
2022/06/22 03:33:04;;;;;;;5.28;4.55;;;17.70;99.90;;;;;;5002528;28;20030;-36
2022/06/22 03:35:45;;;;;;;5.10;4.45;;;17.70;99.90;;;;;;5006340;28;20069;-37
2022/06/22 03:38:19;;;;;;;8.88;4.88;;;17.80;99.90;;;;;;5009826;28;20022;-39
2022/06/22 03:41:13;;;;;;;6.50;4.90;;;17.80;99.90;;;;;;5006162;28;20049;-39
2022/06/22 03:43:57;;;;;;;8.93;5.20;;;17.80;99.90;;;;;;5004349;28;20047;-37
2022/06/22 03:46:59;;;;;;;7.70;5.38;;;17.80;99.90;;;;;;5007944;28;20778;-39
2022/06/22 03:49:33;;;;;;;11.15;5.30;;;17.80;99.90;;;;;;5004032;28;20052;-39
2022/06/22 03:52:12;;;;;;;6.70;5.80;;;17.80;99.90;;;;;;5007344;28;20032;-39
2022/06/22 03:54:44;;;;;;;7.13;5.15;;;17.80;99.90;;;;;;5001725;28;20026;-38
2022/06/22 03:57:15;;;;;;;6.47;4.97;;;17.80;99.90;;;;;;5006220;28;20521;-37
2022/06/22 03:59:44;;;;;;;7.82;5.70;;;17.80;99.90;;;;;;5007930;28;20388;-38
2022/06/22 04:02:10;;;;;;;7.05;4.85;;;17.80;99.90;;;;;;5005991;28;20034;-39
2022/06/22 04:04:36;;;;;;;9.75;5.22;;;17.90;99.90;;;;;;5008724;28;20502;-38
2022/06/22 04:07:02;;;;;;;6.20;5.55;;;18.00;99.90;;;;;;5003416;28;20049;-39
2022/06/22 04:09:29;;;;;;;7.32;5.55;;;18.00;99.90;;;;;;5007812;28;20030;-39
2022/06/22 04:12:04;;;;;;;6.22;4.65;;;17.90;99.90;;;;;;5006653;28;20121;-39
2022/06/22 04:14:29;;;;;;;8.68;5.07;;;17.90;99.90;;;;;;5007455;28;20620;-35
2022/06/22 04:17:37;;;;;;;6.43;5.60;;;17.90;99.90;;;;;;5007428;28;20118;-37
2022/06/22 04:20:23;;;;;;;11.65;5.15;;;17.90;99.90;;;;;;5009477;28;20029;-38
2022/06/22 04:22:54;;;;;;;11.15;5.43;;;17.90;99.90;;;;;;5003622;28;20034;-39
2022/06/22 04:25:28;;;;;;;7.13;5.63;;;17.90;99.90;;;;;;5001612;28;20397;-39
2022/06/22 04:27:56;;;;;;;7.53;4.95;;;18.00;99.90;;;;;;4999287;28;20036;-39
2022/06/22 04:30:25;;;;;;;;;;;18.10;99.90;;;;;;5006086;28;20783;-39
2022/06/22 04:33:14;;;;;;;11.88;6.00;;;18.00;99.90;;;;;;5006248;28;20063;-39
2022/06/22 04:35:49;;;;;;;7.60;5.50;;;17.90;99.90;;;;;;5004131;28;20038;-37
2022/06/22 04:38:27;;;;;;;12.50;5.78;;;17.80;99.90;;;;;;5007613;28;20080;-36
2022/06/22 04:41:11;;;;;;;6.45;5.63;;;17.90;99.90;;;;;;5004076;28;20382;-37
2022/06/22 04:43:37;;;;;;;7.63;5.18;;;17.90;99.90;;;;;;5005862;28;20434;-39
2022/06/22 04:46:07;;;;;;;8.38;5.50;;;18.00;99.90;;;;;;5006662;28;20427;-36
2022/06/22 04:48:39;;;;;;;8.30;5.43;;;18.10;99.90;;;;;;5006403;28;20483;-39
2022/06/22 04:51:11;;;;;;;7.25;5.32;;;18.10;99.90;;;;;;5008294;28;20017;-37
2022/06/22 04:53:39;;;;;;;8.95;5.32;;;18.20;99.90;;;;;;5008843;28;20025;-36
2022/06/22 04:56:09;;;;;;;7.30;5.40;;;18.30;99.90;;;;;;4999254;28;20030;-37
2022/06/22 04:58:46;;;;;;;7.25;4.90;;;18.50;99.90;;;;;;5007877;28;20483;-38
2022/06/22 05:01:21;;;;;;;9.60;6.15;;;18.60;99.90;;;;;;5005275;28;20038;-38
2022/06/22 05:03:47;;;;;;;9.15;5.88;;;18.60;99.90;;;;;;5004251;28;20096;-38
2022/06/22 05:06:26;;;;;;;6.80;6.03;;;18.60;99.90;;;;;;5001479;28;20050;-39
2022/06/22 05:09:16;;;;;;;7.82;5.53;;;18.60;99.90;;;;;;5004756;28;20053;-38
2022/06/22 05:11:46;;;;;;;9.05;6.13;;;18.70;99.90;;;;;;5001616;28;20041;-38
2022/06/22 05:14:23;;;;;;;11.23;6.40;;;18.70;99.90;;;;;;5003504;28;20105;-36
2022/06/22 05:17:06;;;;;;;7.95;5.38;;;18.90;99.90;;;;;;4999898;28;20127;-39
2022/06/22 05:19:40;;;;;;;8.57;5.43;;;18.90;99.90;;;;;;5008633;28;20083;-39
2022/06/22 05:22:13;;;;;;;7.00;4.95;;;19.00;99.90;;;;;;5006545;28;20038;-38
2022/06/22 05:24:43;;;;;;;8.63;4.85;;;19.10;99.90;;;;;;5007988;28;20392;-36
2022/06/22 05:27:20;;;;;;;10.23;5.07;;;19.10;99.90;;;;;;5003437;28;20044;-39
2022/06/22 05:29:55;;;;;;;5.97;4.82;;;19.20;99.90;;;;;;5006954;28;20033;-36
2022/06/22 05:32:30;;;;;;;6.60;5.32;;;19.30;99.90;;;;;;5006393;28;20113;-37
2022/06/22 05:34:56;;;;;;;6.57;4.50;;;19.30;99.90;;;;;;5004723;28;20479;-38
2022/06/22 05:37:30;;;;;;;6.25;4.05;;;19.30;99.90;;;;;;5002819;28;20025;-39
2022/06/22 05:39:57;;;;;;;7.55;5.20;;;19.40;99.90;;;;;;5005782;28;20387;-38
2022/06/22 05:42:24;;;;;;;7.10;4.80;;;19.50;99.90;;;;;;5002979;28;20038;-37
2022/06/22 05:44:53;;;;;;;7.25;4.72;;;19.60;99.90;;;;;;5004516;28;20096;-39
2022/06/22 05:47:32;;;;;;;6.95;5.43;;;19.60;99.90;;;;;;5000269;28;20049;-38
2022/06/22 05:50:27;;;;;;;6.85;4.65;;;19.60;99.90;;;;;;5006072;28;20368;-40
2022/06/22 05:53:01;;;;;;;9.60;5.60;;;19.70;99.90;;;;;;5003338;28;20394;-39
2022/06/22 05:55:34;;;;;;;6.93;4.97;;;19.80;99.90;;;;;;5004941;28;20034;-39
2022/06/22 05:58:10;;;;;;;10.65;5.13;;;19.80;99.90;;;;;;5003106;28;20068;-39
2022/06/22 06:00:42;;;;;;;6.95;4.43;;;19.80;99.90;;;;;;4997268;28;20026;-39
2022/06/22 06:03:48;;;;;;;11.23;5.45;;;19.90;99.90;;;;;;4998291;28;20022;-39
2022/06/22 06:06:18;;;;;;;9.75;4.78;;;19.90;99.90;;;;;;4998532;28;20050;-39
2022/06/22 06:08:51;;;;;;;9.50;5.03;;;20.00;99.90;;;;;;4996334;28;20128;-38
2022/06/22 06:11:21;;;;;;;9.38;5.30;;;20.00;99.90;;;;;;4998069;28;20025;-38
2022/06/22 06:14:23;;;;;;;8.65;5.10;;;20.00;99.90;;;;;;4997852;28;20061;-39
2022/06/22 06:16:56;;;;;;;6.20;4.30;;;20.10;99.90;;;;;;4975375;28;22528;-39
2022/06/22 06:19:25;;;;;;;10.15;5.30;;;20.10;99.90;;;;;;4997676;28;20030;-38
2022/06/22 06:21:56;;;;;;;9.20;4.38;;;20.10;99.90;;;;;;4998934;28;20030;-37
2022/06/22 06:24:31;;;;;;;9.40;4.78;;;20.20;99.90;;;;;;4998589;28;20827;-39
2022/06/22 06:30:15;;;;;;;7.82;4.45;;;20.40;99.90;;;;;;4999694;28;20033;-36
2022/06/22 06:32:53;;;;;;;7.40;5.07;;;20.50;99.90;;;;;;4999312;28;20053;-39
2022/06/22 06:35:36;;;;;;;6.97;4.63;;;20.60;99.90;;;;;;4998924;28;20107;-36
2022/06/22 06:38:01;;;;;;;7.68;4.57;;;20.50;99.90;;;;;;5000472;28;20076;-38
2022/06/22 06:40:41;;;;;;;7.90;4.68;;;20.60;99.90;;;;;;5000306;28;20596;-37
2022/06/22 06:43:28;;;;;;;9.35;4.90;;;20.60;99.90;;;;;;4998471;28;20057;-39
2022/06/22 06:45:54;;;;;;;7.22;4.18;;;20.60;99.90;;;;;;5000038;28;20030;-38
2022/06/22 06:48:24;;;;;;;9.05;4.25;;;20.60;99.90;;;;;;5000528;28;20041;-38
2022/06/22 06:50:54;;;;;;;9.25;4.13;;;20.70;99.90;;;;;;5003207;28;20386;-36
2022/06/22 06:54:00;;;;;;;7.38;3.72;;;20.80;99.90;;;;;;5004313;28;20038;-37
2022/06/22 06:56:44;;;;;;;8.85;3.95;;;20.90;99.90;;;;;;5002403;28;20053;-38
2022/06/22 06:59:15;;;;;;;9.27;4.18;;;21.10;99.90;;;;;;5002144;28;20038;-36
2022/06/22 07:01:44;;;;;;;7.82;3.90;;;21.10;99.90;;;;;;5005099;28;20042;-38
2022/06/22 07:04:17;;;;;;;6.70;4.45;;;21.10;99.90;;;;;;5011112;28;20026;-38
2022/06/22 07:06:43;;;;;;;12.60;4.50;;;21.00;99.90;;;;;;5002717;28;20053;-37
2022/06/22 07:09:18;;;;;;;6.72;4.50;;;20.80;99.90;;;;;;5002568;28;20032;-40
2022/06/22 07:11:54;;;;;;;7.55;4.47;;;20.80;99.90;;;;;;5005204;28;20440;-37
2022/06/22 07:14:25;;;;;;;7.25;4.50;;;20.80;99.90;;;;;;5001890;28;20026;-36
2022/06/22 07:16:57;;;;;;;7.65;4.75;;;20.70;99.90;;;;;;5003422;28;20220;-39
2022/06/22 07:19:25;;;;;;;6.47;4.88;;;20.60;99.90;;;;;;5001817;28;20038;-38
2022/06/22 07:22:03;;;;;;;7.88;4.82;;;20.50;99.90;;;;;;5003848;28;20621;-39
2022/06/22 07:24:33;;;;;;;;;;;20.50;99.90;;;;;;5003061;28;20030;-38
2022/06/22 07:27:28;;;;;;;11.55;4.97;;;20.40;99.90;;;;;;5002172;28;19917;-36
2022/06/22 07:30:00;;;;;;;8.38;4.63;;;20.50;99.90;;;;;;4984625;28;20057;-37
2022/06/22 07:32:39;;;;;;;11.40;5.00;;;20.60;99.90;;;;;;5001540;28;20538;-39
2022/06/22 07:35:08;;;;;;;10.25;5.03;;;20.70;99.90;;;;;;5003757;28;20215;-38
2022/06/22 07:37:40;;;;;;;10.90;5.20;;;20.70;99.90;;;;;;5002249;28;20038;-38
2022/06/22 07:40:19;;;;;;;10.80;5.00;;;20.80;99.90;;;;;;5002787;28;20516;-39
2022/06/22 07:42:50;;;;;;;7.60;4.60;;;20.70;99.90;;;;;;5001968;28;20030;-39
2022/06/22 07:45:19;;;;;;;9.52;5.13;;;20.90;99.90;;;;;;5001273;28;20072;-36
2022/06/22 07:48:06;;;;;;;8.55;5.10;;;20.90;99.90;;;;;;5002352;28;20101;-39
2022/06/22 07:50:36;;;;;;;10.47;4.97;;;21.00;99.90;;;;;;5001286;28;20026;-38
2022/06/22 07:53:21;;;;;;;13.30;5.03;;;21.20;99.90;;;;;;5004593;28;20157;-39
2022/06/22 07:56:19;;;;;;;10.00;4.60;;;21.20;99.90;;;;;;5001871;28;20038;-39
2022/06/22 07:58:48;;;;;;;5.90;4.07;;;21.40;99.90;;;;;;5000727;28;20034;-36
2022/06/22 08:01:23;;;;;;;10.93;5.05;;;21.50;99.90;;;;;;5000379;28;20033;-38
2022/06/22 08:03:55;;;;;;;7.85;3.75;;;21.40;99.90;;;;;;5000924;28;20044;-35
2022/06/22 08:06:27;;;;;;;11.05;4.60;;;21.50;99.90;;;;;;5002869;28;20068;-38
2022/06/22 08:08:56;;;;;;;9.40;4.05;;;21.50;99.90;;;;;;4999769;28;20569;-39
2022/06/22 08:11:36;;;;;;;9.80;4.28;;;21.60;99.90;;;;;;5002076;28;20419;-38
2022/06/22 08:14:13;;;;;;;8.55;4.22;;;21.70;99.90;;;;;;5002906;28;20621;-38
2022/06/22 08:16:45;;;;;;;10.70;4.55;;;21.70;99.90;;;;;;5002444;28;20128;-36
2022/06/22 08:19:12;;;;;;;11.23;4.47;;;21.70;99.90;;;;;;5001386;28;20787;-38
2022/06/22 08:21:44;;;;;;;12.98;5.22;;;21.80;99.90;;;;;;5003530;28;20121;-39
2022/06/22 08:24:12;;;;;;;11.27;5.43;;;21.80;99.90;;;;;;5001379;28;20560;-36
2022/06/22 08:26:38;;;;;;;;;;;21.80;99.90;;;;;;5001096;28;20928;-38
2022/06/22 08:29:05;;;;;;;11.60;4.40;;;21.80;99.90;;;;;;5001261;28;20341;-37
2022/06/22 08:31:38;;;;;;;9.93;4.55;;;21.70;99.90;;;;;;5001437;28;20118;-39
2022/06/22 08:34:08;;;;;;;9.43;4.57;;;21.40;99.90;;;;;;5000417;28;20112;-39
2022/06/22 08:36:58;;;;;;;10.55;5.78;;;21.50;99.90;;;;;;5001837;28;20113;-39
2022/06/22 08:39:27;;;;;;;10.63;4.88;;;21.60;99.90;;;;;;5001233;28;20759;-37
2022/06/22 08:42:13;;;;;;;8.73;4.32;;;21.70;99.90;;;;;;4999823;28;20589;-39
2022/06/22 08:45:11;;;;;;;8.10;4.57;;;21.70;99.90;;;;;;4989702;28;20038;-39
2022/06/22 08:47:51;;;;;;;12.73;4.88;;;21.70;99.90;;;;;;5000271;28;20049;-39
2022/06/22 08:50:42;;;;;;;9.82;4.57;;;21.70;99.90;;;;;;5002899;28;20375;-37
2022/06/22 08:53:35;;;;;;;13.80;5.60;;;21.80;99.90;;;;;;5000030;28;20244;-39
2022/06/22 08:56:22;;;;;;;10.93;5.18;;;21.80;99.90;;;;;;5000947;28;20038;-38
2022/06/22 08:58:59;;;;;;;8.73;5.35;;;21.80;99.90;;;;;;5000816;28;20065;-38
2022/06/22 09:01:39;;;;;;;9.82;4.97;;;21.60;99.90;;;;;;5001163;28;20297;-39
2022/06/22 09:04:29;;;;;;;8.93;4.65;;;21.60;99.90;;;;;;4999702;28;20479;-39
2022/06/22 09:06:55;;;;;;;10.93;6.05;;;21.50;99.90;;;;;;4999382;28;20050;-38
2022/06/22 09:09:51;;;;;;;12.05;5.35;;;21.50;99.90;;;;;;5000285;28;20040;-39
2022/06/22 09:12:37;;;;;;;11.98;5.30;;;21.50;99.90;;;;;;4998848;28;20456;-38
2022/06/22 09:15:17;;;;;;;9.85;5.32;;;21.50;99.90;;;;;;4999204;28;20117;-38
2022/06/22 09:17:54;;;;;;;9.48;6.30;;;21.50;99.90;;;;;;5000287;28;20029;-39
2022/06/22 09:20:41;;;;;;;10.23;5.32;;;21.40;99.90;;;;;;5002325;28;20421;-39
2022/06/22 09:23:22;;;;;;;10.50;5.22;;;21.50;99.90;;;;;;5000217;28;20072;-39
2022/06/22 09:25:58;;;;;;;9.38;5.68;;;21.40;99.90;;;;;;4999930;28;20040;-36
2022/06/22 09:28:46;;;;;;;15.90;6.53;;;21.40;99.90;;;;;;4999411;28;20038;-39
2022/06/22 09:31:30;;;;;;;8.27;5.93;;;21.40;99.90;;;;;;4999001;28;20034;-39
2022/06/22 09:33:59;;;;;;;9.57;5.68;;;21.40;99.90;;;;;;4999554;28;20022;-39
2022/06/22 09:37:00;;;;;;;9.93;5.07;;;21.50;99.90;;;;;;4999206;28;20106;-39
2022/06/22 09:39:59;;;;;;;12.40;5.57;;;21.60;99.90;;;;;;5000902;28;20033;-39
2022/06/22 09:42:46;;;;;;;11.38;5.65;;;21.60;99.90;;;;;;5001030;28;20611;-36
2022/06/22 09:45:15;;;;;;;9.13;5.40;;;21.60;99.90;;;;;;5001462;28;20026;-39
2022/06/22 09:48:04;;;;;;;11.30;5.45;;;21.60;99.90;;;;;;4997558;28;20042;-38
2022/06/22 09:50:48;;;;;;;9.63;5.93;;;21.60;99.90;;;;;;4999788;28;20026;-38
2022/06/22 09:53:32;;;;;;;10.95;6.00;;;21.60;99.90;;;;;;5000819;28;20116;-36
2022/06/22 09:56:19;;;;;;;8.88;5.20;;;21.70;99.90;;;;;;5000276;28;20125;-39
2022/06/22 09:59:04;;;;;;;12.05;5.30;;;21.60;99.90;;;;;;5000663;28;20073;-39
2022/06/22 10:02:15;;;;;;;9.73;5.65;;;21.60;99.90;;;;;;5001250;28;20482;-36
2022/06/22 10:05:09;;;;;;;11.45;5.10;;;21.70;99.90;;;;;;5000341;28;20034;-35
2022/06/22 10:07:53;;;;;;;12.73;6.53;;;21.70;99.90;;;;;;4998581;28;20065;-39
2022/06/22 10:10:51;;;;;;;10.93;5.35;;;21.70;99.90;;;;;;4999836;28;20034;-37
2022/06/22 10:13:40;;;;;;;13.98;6.40;;;21.70;99.90;;;;;;5000996;28;20025;-37
2022/06/22 10:16:16;;;;;;;14.30;6.22;;;21.70;99.90;;;;;;4999660;28;20041;-38
2022/06/22 10:18:52;;;;;;;7.18;5.75;;;21.80;99.90;;;;;;4999383;28;20076;-35
2022/06/22 10:21:30;;;;;;;10.05;5.80;;;21.90;99.90;;;;;;5000139;28;20029;-39
2022/06/22 10:24:16;;;;;;;10.50;5.97;;;22.00;99.90;;;;;;4999592;28;20034;-36
2022/06/22 10:27:12;;;;;;;13.18;6.32;;;22.10;99.90;;;;;;5004065;28;20124;-38
2022/06/22 10:30:09;;;;;;;11.93;5.82;;;22.10;99.90;;;;;;5003921;28;20030;-39
2022/06/22 10:32:53;;;;;;;;;;;22.10;99.90;;;;;;4987625;28;20185;-36
2022/06/22 10:35:22;;;;;;;9.73;5.47;;;22.20;99.90;;;;;;5003681;28;19971;-36
2022/06/22 10:38:42;;;;;;;8.43;5.78;;;22.30;99.90;;;;;;5003391;28;20030;-39
2022/06/22 10:47:25;;;;;;;13.43;6.15;;;22.40;99.90;;;;;;5004024;28;20500;-37
2022/06/22 10:49:54;;;;;;;9.77;5.50;;;22.30;99.90;;;;;;5003694;28;20109;-36
2022/06/22 10:52:56;;;;;;;10.32;5.65;;;22.30;99.90;;;;;;5005665;28;20034;-36
2022/06/22 10:55:34;;;;;;;8.00;6.07;;;22.30;99.90;;;;;;5002828;28;20030;-39
2022/06/22 10:58:02;;;;;;;;;;;22.40;99.90;;;;;;5002618;28;20045;-39
2022/06/22 11:00:55;;;;;;;8.75;5.53;;;22.30;99.90;;;;;;5003053;28;20000;-36
2022/06/22 11:03:57;;;;;;;12.80;5.88;;;22.40;99.90;;;;;;5003048;28;20042;-38
2022/06/22 11:06:55;;;;;;;11.18;5.15;;;22.20;99.90;;;;;;5002456;28;20034;-39
2022/06/22 11:09:20;;;;;;;;;;;22.10;99.90;;;;;;5004136;28;20054;-37
2022/06/22 11:12:06;;;;;;;12.18;5.68;;;22.20;99.90;;;;;;5002990;28;19910;-39
2022/06/22 11:14:50;;;;;;;13.93;5.30;;;22.30;99.90;;;;;;5010967;28;20064;-36
2022/06/22 11:17:34;;;;;;;8.20;4.72;;;22.30;99.90;;;;;;5003060;28;20105;-38
2022/06/22 11:20:14;;;;;;;10.13;5.25;;;22.30;99.90;;;;;;5002413;28;20034;-39
2022/06/22 11:22:46;;;;;;;13.57;6.57;;;22.30;99.90;;;;;;5004143;28;20101;-35
2022/06/22 11:31:35;;;;;;;14.02;5.75;;;22.30;99.90;;;;;;5002821;28;20458;-36
2022/06/22 11:34:44;;;;;;;13.15;6.55;;;22.40;99.90;;;;;;5002645;28;20092;-39
2022/06/22 11:37:23;;;;;;;9.32;6.20;;;22.40;99.90;;;;;;5000771;28;20042;-39
2022/06/22 11:39:48;;;;;;;10.13;5.68;;;22.40;99.90;;;;;;5002672;28;20030;-37
2022/06/22 11:42:29;;;;;;;12.85;7.07;;;22.20;99.90;;;;;;5002261;28;20037;-37
2022/06/22 11:48:13;;;;;;;12.98;7.60;;;22.20;99.90;;;;;;5002232;28;20416;-37
2022/06/22 11:50:49;;;;;;;12.05;7.00;;;22.20;99.90;;;;;;5005582;28;20026;-38
2022/06/22 11:53:39;;;;;;;11.95;7.03;;;22.20;99.90;;;;;;5002278;28;20033;-38
2022/06/22 11:56:21;;;;;;;13.95;7.43;;;22.20;99.90;;;;;;5002054;28;20394;-37
2022/06/22 11:59:08;;;;;;;14.88;7.70;;;22.10;99.90;;;;;;5001491;28;20088;-39
2022/06/22 12:01:43;;;;;;;13.68;7.78;;;22.20;99.90;;;;;;5000913;28;20503;-38
2022/06/22 12:04:25;;;;;;;10.52;7.60;;;22.30;99.90;;;;;;5002912;28;20958;-38
2022/06/22 12:07:22;;;;;;;10.38;7.07;;;22.30;99.90;;;;;;5001399;28;20128;-35
2022/06/22 12:10:22;;;;;;;12.85;7.80;;;22.40;99.90;;;;;;5001115;28;20060;-38
2022/06/22 12:13:11;;;;;;;12.57;7.38;;;22.50;99.90;;;;;;5002800;28;20034;-39
2022/06/22 12:15:52;;;;;;;12.90;7.80;;;22.50;99.90;;;;;;5002173;28;21749;-38
2022/06/22 12:18:17;;;;;;;16.30;7.95;;;22.30;99.90;;;;;;5002213;28;20026;-38
2022/06/22 12:21:11;;;;;;;15.05;8.10;;;22.20;99.90;;;;;;5003634;28;20076;-36
2022/06/22 12:23:48;;;;;;;10.82;7.60;;;22.30;99.90;;;;;;4999702;28;20023;-38
2022/06/22 12:26:36;;;;;;;15.70;7.78;;;22.20;99.90;;;;;;5001835;28;20037;-37
2022/06/22 12:29:13;;;;;;;13.30;8.55;;;22.00;99.90;;;;;;5001511;28;20101;-39
2022/06/22 12:31:48;;;;;;;15.52;9.00;;;22.10;99.90;;;;;;5000819;28;20038;-38
2022/06/22 12:34:25;;;;;;;11.80;8.93;;;22.20;99.90;;;;;;5001313;28;20041;-38
2022/06/22 12:36:56;;;;;;;16.80;9.20;;;22.20;99.90;;;;;;5006769;28;20502;-37
2022/06/22 12:39:44;;;;;;;14.95;9.07;;;22.30;99.90;;;;;;5009664;28;20042;-39
2022/06/22 12:42:36;;;;;;;;;;;22.40;99.90;;;;;;5003657;28;20038;-36
2022/06/22 12:45:27;;;;;;;14.55;8.07;;;22.50;99.90;;;;;;5002695;28;20352;-39
2022/06/22 12:48:01;;;;;;;14.00;8.35;;;22.50;99.90;;;;;;5008974;28;20614;-37
2022/06/22 12:50:41;;;;;;;10.32;8.68;;;22.60;99.90;;;;;;5003224;28;20045;-39
2022/06/22 12:53:30;;;;;;;14.02;7.80;;;22.80;99.90;;;;;;5008103;28;20030;-37
2022/06/22 12:56:06;;;;;;;14.48;8.75;;;22.70;99.90;;;;;;5000294;28;20075;-36
2022/06/22 12:58:36;;;;;;;12.95;8.70;;;22.60;99.90;;;;;;5006025;28;20033;-38
2022/06/22 13:01:03;;;;;;;13.77;8.55;;;22.60;99.90;;;;;;5007614;28;20033;-39
2022/06/22 13:03:52;;;;;;;14.18;8.43;;;22.60;99.90;;;;;;5009401;28;20029;-37
2022/06/22 13:06:19;;;;;;;11.82;7.82;;;22.50;99.90;;;;;;5007150;28;20554;-36
2022/06/22 13:08:45;;;;;;;16.35;8.60;;;22.50;99.90;;;;;;5007091;28;20034;-37
2022/06/22 13:11:20;;;;;;;12.73;8.15;;;22.50;99.90;;;;;;5009987;28;20097;-39
2022/06/22 13:14:18;;;;;;;13.02;8.98;;;22.30;99.90;;;;;;5008397;28;20089;-39
2022/06/22 13:17:14;;;;;;;16.75;9.43;;;22.20;99.90;;;;;;5003420;28;20442;-38
2022/06/22 13:19:58;;;;;;;12.88;9.02;;;22.20;99.90;;;;;;5007983;28;20033;-39
2022/06/22 13:22:26;;;;;;;12.77;9.05;;;22.30;99.90;;;;;;5019114;28;20088;-38
2022/06/22 13:24:58;;;;;;;12.15;8.52;;;22.40;99.90;;;;;;5006678;28;20501;-36
2022/06/22 13:27:32;;;;;;;13.38;8.75;;;22.20;99.90;;;;;;5009556;28;20792;-37
2022/06/22 13:30:29;;;;;;;13.38;9.13;;;22.20;99.90;;;;;;5008292;28;20026;-38
2022/06/22 13:33:22;;;;;;;15.52;8.95;;;22.10;99.90;;;;;;5007254;28;20797;-39
2022/06/22 13:36:10;;;;;;;12.10;9.38;;;22.00;99.90;;;;;;5008568;28;20756;-37
2022/06/22 13:38:58;;;;;;;12.65;8.77;;;21.90;99.90;;;;;;4999120;28;20425;-39
2022/06/22 13:41:34;;;;;;;14.32;7.90;;;21.70;99.90;;;;;;5003434;28;20034;-37
2022/06/22 13:44:36;;;;;;;11.85;7.35;;;21.70;99.90;;;;;;5008783;28;20738;-38
2022/06/22 13:47:23;;;;;;;10.05;7.65;;;21.70;99.90;;;;;;5007031;28;20041;-39
2022/06/22 13:50:15;;;;;;;8.98;7.32;;;21.70;99.90;;;;;;5005168;28;20180;-36
2022/06/22 13:52:54;;;;;;;12.50;7.85;;;21.70;99.90;;;;;;5007518;28;20184;-37
2022/06/22 13:55:41;;;;;;;11.10;7.50;;;21.70;99.90;;;;;;5006870;28;20147;-38
2022/06/22 13:58:22;;;;;;;13.85;7.68;;;21.70;99.90;;;;;;5009481;28;20101;-36
2022/06/22 14:01:09;;;;;;;9.55;7.28;;;21.80;99.90;;;;;;5010785;28;20038;-36
2022/06/22 14:03:42;;;;;;;12.77;7.03;;;21.70;99.90;;;;;;5006863;28;20030;-39
2022/06/22 14:06:14;;;;;;;10.68;7.25;;;21.60;99.90;;;;;;5009695;28;20442;-39
2022/06/22 14:09:00;;;;;;;14.30;8.55;;;21.60;99.90;;;;;;5010303;28;20384;-39
2022/06/22 14:11:40;;;;;;;11.68;7.40;;;21.80;99.90;;;;;;5012626;28;20041;-38
2022/06/22 14:14:21;;;;;;;11.70;8.13;;;21.80;99.90;;;;;;5013225;28;20034;-38